Tacoma/McChord AFB, Washington
Current Conditions -  °F | °C
As of 2:58 PM on Friday 31 Oct 2014 (Local Time) from KTCM Reporting Station
Overcast Overcast  
Wind Chill: 54°   Ceiling: 1600
Heat Index: 54°   Visibility: 10mi
Dew Point: 50°   Wind: 6mph
Humidity: 85%   Direction: 210°SSW
Pressure: 29.83"   Gusts: NA
Location:  47.15°N, 122.48°W
Report Text: KTCM 312158Z AUTO 21005KT 10SM BKN016 BKN023 OVC090 12/10 A2983 RMK AO2 CIG 015V024 SLP105 T01230099 $
Loading
Personal Weather Stations






























Interactive Weather Map
Tropical Storm Tracking
New forecast layout! Learn more

10-Day Weather Forecast

Advertisements
Track Severe Weather on mobile